sensor_id;sensor_type;location;lat;lon;timestamp;P1;durP1;ratioP1;P2;durP2;ratioP2
48014;SDS011;33780;51.034;7.120;2023-04-23T00:00:44;9.70;;;4.43;;
48014;SDS011;33780;51.034;7.120;2023-04-23T00:03:12;10.23;;;4.88;;
48014;SDS011;33780;51.034;7.120;2023-04-23T00:05:38;8.73;;;4.20;;
48014;SDS011;33780;51.034;7.120;2023-04-23T00:08:06;7.85;;;4.53;;
48014;SDS011;33780;51.034;7.120;2023-04-23T00:10:32;8.13;;;4.30;;
48014;SDS011;33780;51.034;7.120;2023-04-23T00:12:57;8.25;;;4.70;;
48014;SDS011;33780;51.034;7.120;2023-04-23T00:15:23;7.82;;;4.05;;
48014;SDS011;33780;51.034;7.120;2023-04-23T00:17:48;7.68;;;4.22;;
48014;SDS011;33780;51.034;7.120;2023-04-23T00:20:14;9.13;;;4.80;;
48014;SDS011;33780;51.034;7.120;2023-04-23T00:22:40;8.73;;;4.70;;
48014;SDS011;33780;51.034;7.120;2023-04-23T00:25:06;8.32;;;4.60;;
48014;SDS011;33780;51.034;7.120;2023-04-23T00:27:32;7.88;;;4.45;;
48014;SDS011;33780;51.034;7.120;2023-04-23T00:29:57;8.40;;;4.55;;
48014;SDS011;33780;51.034;7.120;2023-04-23T00:32:22;7.32;;;4.13;;
48014;SDS011;33780;51.034;7.120;2023-04-23T00:34:48;9.00;;;4.93;;
48014;SDS011;33780;51.034;7.120;2023-04-23T00:37:13;9.20;;;4.85;;
48014;SDS011;33780;51.034;7.120;2023-04-23T00:39:39;7.75;;;4.13;;
48014;SDS011;33780;51.034;7.120;2023-04-23T00:42:04;9.82;;;5.10;;
48014;SDS011;33780;51.034;7.120;2023-04-23T00:44:36;9.20;;;4.70;;
48014;SDS011;33780;51.034;7.120;2023-04-23T00:47:03;8.55;;;4.60;;
48014;SDS011;33780;51.034;7.120;2023-04-23T00:49:30;8.82;;;4.30;;
48014;SDS011;33780;51.034;7.120;2023-04-23T00:51:55;8.27;;;4.57;;
48014;SDS011;33780;51.034;7.120;2023-04-23T00:54:21;7.22;;;4.10;;
48014;SDS011;33780;51.034;7.120;2023-04-23T00:56:47;8.82;;;4.70;;
48014;SDS011;33780;51.034;7.120;2023-04-23T00:59:12;9.80;;;5.00;;
48014;SDS011;33780;51.034;7.120;2023-04-23T01:01:38;7.90;;;4.18;;
48014;SDS011;33780;51.034;7.120;2023-04-23T01:04:04;9.52;;;4.95;;
48014;SDS011;33780;51.034;7.120;2023-04-23T01:06:30;7.93;;;4.35;;
48014;SDS011;33780;51.034;7.120;2023-04-23T01:08:56;8.05;;;4.32;;
48014;SDS011;33780;51.034;7.120;2023-04-23T01:11:21;8.15;;;4.38;;
48014;SDS011;33780;51.034;7.120;2023-04-23T01:13:47;10.23;;;4.80;;
48014;SDS011;33780;51.034;7.120;2023-04-23T01:16:12;8.48;;;4.63;;
48014;SDS011;33780;51.034;7.120;2023-04-23T01:18:37;9.13;;;4.28;;
48014;SDS011;33780;51.034;7.120;2023-04-23T01:21:04;10.40;;;4.82;;
48014;SDS011;33780;51.034;7.120;2023-04-23T01:23:31;11.30;;;4.88;;
48014;SDS011;33780;51.034;7.120;2023-04-23T01:25:56;10.38;;;4.55;;
48014;SDS011;33780;51.034;7.120;2023-04-23T01:28:22;8.45;;;4.57;;
48014;SDS011;33780;51.034;7.120;2023-04-23T01:30:48;9.73;;;5.20;;
48014;SDS011;33780;51.034;7.120;2023-04-23T01:33:14;7.97;;;4.43;;
48014;SDS011;33780;51.034;7.120;2023-04-23T01:35:40;8.75;;;5.30;;
48014;SDS011;33780;51.034;7.120;2023-04-23T01:38:08;9.50;;;5.13;;
48014;SDS011;33780;51.034;7.120;2023-04-23T01:40:35;9.80;;;5.03;;
48014;SDS011;33780;51.034;7.120;2023-04-23T01:43:01;11.45;;;4.57;;
48014;SDS011;33780;51.034;7.120;2023-04-23T01:45:26;10.95;;;4.95;;
48014;SDS011;33780;51.034;7.120;2023-04-23T01:47:52;7.53;;;4.35;;
48014;SDS011;33780;51.034;7.120;2023-04-23T01:50:17;11.32;;;4.57;;
48014;SDS011;33780;51.034;7.120;2023-04-23T01:52:45;9.23;;;4.60;;
48014;SDS011;33780;51.034;7.120;2023-04-23T01:55:10;9.25;;;4.72;;
48014;SDS011;33780;51.034;7.120;2023-04-23T01:57:36;9.60;;;4.70;;
48014;SDS011;33780;51.034;7.120;2023-04-23T02:00:11;8.85;;;4.78;;
48014;SDS011;33780;51.034;7.120;2023-04-23T02:02:38;8.95;;;4.68;;
48014;SDS011;33780;51.034;7.120;2023-04-23T02:05:09;9.60;;;4.72;;
48014;SDS011;33780;51.034;7.120;2023-04-23T02:07:36;10.75;;;4.63;;
48014;SDS011;33780;51.034;7.120;2023-04-23T02:10:01;9.30;;;4.80;;
48014;SDS011;33780;51.034;7.120;2023-04-23T02:12:28;10.60;;;5.07;;
48014;SDS011;33780;51.034;7.120;2023-04-23T02:14:53;9.60;;;4.80;;
48014;SDS011;33780;51.034;7.120;2023-04-23T02:17:19;9.85;;;4.93;;
48014;SDS011;33780;51.034;7.120;2023-04-23T02:19:45;10.75;;;5.25;;
48014;SDS011;33780;51.034;7.120;2023-04-23T02:22:10;9.68;;;4.85;;
48014;SDS011;33780;51.034;7.120;2023-04-23T02:24:36;10.75;;;5.38;;
48014;SDS011;33780;51.034;7.120;2023-04-23T02:27:02;10.57;;;5.00;;
48014;SDS011;33780;51.034;7.120;2023-04-23T02:29:28;9.13;;;4.93;;
48014;SDS011;33780;51.034;7.120;2023-04-23T02:31:53;10.93;;;4.82;;
48014;SDS011;33780;51.034;7.120;2023-04-23T02:34:19;9.52;;;4.82;;
48014;SDS011;33780;51.034;7.120;2023-04-23T02:36:44;12.05;;;5.03;;
48014;SDS011;33780;51.034;7.120;2023-04-23T02:39:09;10.23;;;5.22;;
48014;SDS011;33780;51.034;7.120;2023-04-23T02:41:34;9.45;;;5.20;;
48014;SDS011;33780;51.034;7.120;2023-04-23T02:44:00;12.93;;;5.10;;
48014;SDS011;33780;51.034;7.120;2023-04-23T02:46:25;9.98;;;5.35;;
48014;SDS011;33780;51.034;7.120;2023-04-23T02:48:50;11.68;;;5.80;;
48014;SDS011;33780;51.034;7.120;2023-04-23T02:51:16;10.13;;;5.10;;
48014;SDS011;33780;51.034;7.120;2023-04-23T02:53:42;11.57;;;5.32;;
48014;SDS011;33780;51.034;7.120;2023-04-23T02:56:07;11.23;;;5.78;;
48014;SDS011;33780;51.034;7.120;2023-04-23T02:58:32;12.43;;;5.70;;
48014;SDS011;33780;51.034;7.120;2023-04-23T03:00:58;9.52;;;4.75;;
48014;SDS011;33780;51.034;7.120;2023-04-23T03:03:24;10.95;;;4.93;;
48014;SDS011;33780;51.034;7.120;2023-04-23T03:05:51;12.57;;;5.47;;
48014;SDS011;33780;51.034;7.120;2023-04-23T03:08:17;11.75;;;5.50;;
48014;SDS011;33780;51.034;7.120;2023-04-23T03:10:42;11.07;;;5.57;;
48014;SDS011;33780;51.034;7.120;2023-04-23T03:13:08;11.82;;;5.65;;
48014;SDS011;33780;51.034;7.120;2023-04-23T03:15:33;12.50;;;5.30;;
48014;SDS011;33780;51.034;7.120;2023-04-23T03:17:59;9.43;;;5.22;;
48014;SDS011;33780;51.034;7.120;2023-04-23T03:20:25;10.10;;;5.20;;
48014;SDS011;33780;51.034;7.120;2023-04-23T03:22:51;10.32;;;4.97;;
48014;SDS011;33780;51.034;7.120;2023-04-23T03:25:16;9.65;;;5.13;;
48014;SDS011;33780;51.034;7.120;2023-04-23T03:27:41;11.50;;;5.45;;
48014;SDS011;33780;51.034;7.120;2023-04-23T03:30:08;13.25;;;5.57;;
48014;SDS011;33780;51.034;7.120;2023-04-23T03:32:34;11.07;;;5.53;;
48014;SDS011;33780;51.034;7.120;2023-04-23T03:35:00;10.30;;;4.93;;
48014;SDS011;33780;51.034;7.120;2023-04-23T03:37:26;11.27;;;5.38;;
48014;SDS011;33780;51.034;7.120;2023-04-23T03:39:51;11.35;;;5.53;;
48014;SDS011;33780;51.034;7.120;2023-04-23T03:42:17;9.15;;;4.72;;
48014;SDS011;33780;51.034;7.120;2023-04-23T03:44:42;9.13;;;5.03;;
48014;SDS011;33780;51.034;7.120;2023-04-23T03:47:07;10.07;;;4.80;;
48014;SDS011;33780;51.034;7.120;2023-04-23T03:49:32;10.35;;;5.32;;
48014;SDS011;33780;51.034;7.120;2023-04-23T03:51:58;11.30;;;5.47;;
48014;SDS011;33780;51.034;7.120;2023-04-23T03:54:23;10.40;;;5.55;;
48014;SDS011;33780;51.034;7.120;2023-04-23T03:56:50;9.55;;;5.07;;
48014;SDS011;33780;51.034;7.120;2023-04-23T03:59:15;8.93;;;4.97;;
48014;SDS011;33780;51.034;7.120;2023-04-23T04:01:41;8.20;;;4.45;;
48014;SDS011;33780;51.034;7.120;2023-04-23T04:04:07;8.98;;;4.80;;
48014;SDS011;33780;51.034;7.120;2023-04-23T04:06:32;9.52;;;5.05;;
48014;SDS011;33780;51.034;7.120;2023-04-23T04:08:57;11.38;;;5.68;;
48014;SDS011;33780;51.034;7.120;2023-04-23T04:11:22;11.70;;;5.55;;
48014;SDS011;33780;51.034;7.120;2023-04-23T04:13:48;9.27;;;4.82;;
48014;SDS011;33780;51.034;7.120;2023-04-23T04:16:13;10.48;;;5.00;;
48014;SDS011;33780;51.034;7.120;2023-04-23T04:18:38;8.13;;;4.60;;
48014;SDS011;33780;51.034;7.120;2023-04-23T04:21:03;11.00;;;4.95;;
48014;SDS011;33780;51.034;7.120;2023-04-23T04:23:29;11.82;;;5.18;;
48014;SDS011;33780;51.034;7.120;2023-04-23T04:25:55;13.10;;;5.35;;
48014;SDS011;33780;51.034;7.120;2023-04-23T04:28:21;11.15;;;4.82;;
48014;SDS011;33780;51.034;7.120;2023-04-23T04:30:49;11.38;;;5.07;;
48014;SDS011;33780;51.034;7.120;2023-04-23T04:33:14;11.82;;;5.28;;
48014;SDS011;33780;51.034;7.120;2023-04-23T04:35:40;9.55;;;4.95;;
48014;SDS011;33780;51.034;7.120;2023-04-23T04:38:06;10.07;;;5.28;;
48014;SDS011;33780;51.034;7.120;2023-04-23T04:40:32;8.95;;;4.53;;
48014;SDS011;33780;51.034;7.120;2023-04-23T04:42:58;9.70;;;5.15;;
48014;SDS011;33780;51.034;7.120;2023-04-23T04:45:24;10.90;;;5.28;;
48014;SDS011;33780;51.034;7.120;2023-04-23T04:47:49;8.73;;;4.43;;
48014;SDS011;33780;51.034;7.120;2023-04-23T04:50:15;11.35;;;5.00;;
48014;SDS011;33780;51.034;7.120;2023-04-23T04:52:41;11.32;;;4.90;;
48014;SDS011;33780;51.034;7.120;2023-04-23T04:55:06;10.35;;;5.32;;
48014;SDS011;33780;51.034;7.120;2023-04-23T04:57:32;11.57;;;5.18;;
48014;SDS011;33780;51.034;7.120;2023-04-23T04:59:57;11.23;;;4.82;;
48014;SDS011;33780;51.034;7.120;2023-04-23T05:02:22;9.40;;;4.63;;
48014;SDS011;33780;51.034;7.120;2023-04-23T05:04:48;9.73;;;4.78;;
48014;SDS011;33780;51.034;7.120;2023-04-23T05:07:13;10.25;;;4.53;;
48014;SDS011;33780;51.034;7.120;2023-04-23T05:09:38;14.55;;;5.45;;
48014;SDS011;33780;51.034;7.120;2023-04-23T05:12:04;9.60;;;4.28;;
48014;SDS011;33780;51.034;7.120;2023-04-23T05:14:31;10.88;;;5.57;;
48014;SDS011;33780;51.034;7.120;2023-04-23T05:16:57;11.95;;;4.97;;
48014;SDS011;33780;51.034;7.120;2023-04-23T05:19:24;10.75;;;5.28;;
48014;SDS011;33780;51.034;7.120;2023-04-23T05:21:50;9.75;;;4.85;;
48014;SDS011;33780;51.034;7.120;2023-04-23T05:24:15;9.77;;;4.57;;
48014;SDS011;33780;51.034;7.120;2023-04-23T05:26:40;9.75;;;4.43;;
48014;SDS011;33780;51.034;7.120;2023-04-23T05:29:06;10.35;;;4.53;;
48014;SDS011;33780;51.034;7.120;2023-04-23T05:31:31;12.18;;;4.85;;
48014;SDS011;33780;51.034;7.120;2023-04-23T05:33:56;10.52;;;5.00;;
48014;SDS011;33780;51.034;7.120;2023-04-23T05:36:22;9.07;;;4.72;;
48014;SDS011;33780;51.034;7.120;2023-04-23T05:38:47;10.50;;;5.28;;
48014;SDS011;33780;51.034;7.120;2023-04-23T05:41:12;8.65;;;4.35;;
48014;SDS011;33780;51.034;7.120;2023-04-23T05:43:39;10.05;;;5.10;;
48014;SDS011;33780;51.034;7.120;2023-04-23T05:46:04;9.13;;;4.57;;
48014;SDS011;33780;51.034;7.120;2023-04-23T05:48:31;10.27;;;4.82;;
48014;SDS011;33780;51.034;7.120;2023-04-23T05:50:56;10.55;;;5.32;;
48014;SDS011;33780;51.034;7.120;2023-04-23T05:53:22;10.15;;;4.90;;
48014;SDS011;33780;51.034;7.120;2023-04-23T05:55:47;8.93;;;4.93;;
48014;SDS011;33780;51.034;7.120;2023-04-23T05:58:13;11.05;;;5.43;;
48014;SDS011;33780;51.034;7.120;2023-04-23T06:00:38;9.00;;;4.57;;
48014;SDS011;33780;51.034;7.120;2023-04-23T06:03:04;9.95;;;5.15;;
48014;SDS011;33780;51.034;7.120;2023-04-23T06:05:30;10.25;;;4.80;;
48014;SDS011;33780;51.034;7.120;2023-04-23T06:07:55;10.32;;;5.50;;
48014;SDS011;33780;51.034;7.120;2023-04-23T06:10:20;10.73;;;5.15;;
48014;SDS011;33780;51.034;7.120;2023-04-23T06:12:45;11.27;;;4.82;;
48014;SDS011;33780;51.034;7.120;2023-04-23T06:15:11;9.43;;;5.05;;
48014;SDS011;33780;51.034;7.120;2023-04-23T06:17:36;11.65;;;5.45;;
48014;SDS011;33780;51.034;7.120;2023-04-23T06:20:02;9.38;;;4.82;;
48014;SDS011;33780;51.034;7.120;2023-04-23T06:22:29;9.43;;;4.47;;
48014;SDS011;33780;51.034;7.120;2023-04-23T06:24:55;9.88;;;4.30;;
48014;SDS011;33780;51.034;7.120;2023-04-23T06:27:20;11.07;;;5.03;;
48014;SDS011;33780;51.034;7.120;2023-04-23T06:29:45;11.80;;;5.53;;
48014;SDS011;33780;51.034;7.120;2023-04-23T06:32:11;9.85;;;5.18;;
48014;SDS011;33780;51.034;7.120;2023-04-23T06:34:36;9.93;;;5.25;;
48014;SDS011;33780;51.034;7.120;2023-04-23T06:37:01;9.10;;;5.10;;
48014;SDS011;33780;51.034;7.120;2023-04-23T06:39:26;9.00;;;4.45;;
48014;SDS011;33780;51.034;7.120;2023-04-23T06:41:52;9.07;;;4.20;;
48014;SDS011;33780;51.034;7.120;2023-04-23T06:44:17;11.65;;;4.90;;
48014;SDS011;33780;51.034;7.120;2023-04-23T06:46:42;7.10;;;3.92;;
48014;SDS011;33780;51.034;7.120;2023-04-23T06:49:08;5.70;;;3.20;;
48014;SDS011;33780;51.034;7.120;2023-04-23T06:51:33;5.95;;;3.40;;
48014;SDS011;33780;51.034;7.120;2023-04-23T06:53:58;5.28;;;3.10;;
48014;SDS011;33780;51.034;7.120;2023-04-23T06:56:24;6.68;;;3.17;;
48014;SDS011;33780;51.034;7.120;2023-04-23T06:58:50;6.20;;;3.35;;
48014;SDS011;33780;51.034;7.120;2023-04-23T07:01:16;6.60;;;3.63;;
48014;SDS011;33780;51.034;7.120;2023-04-23T07:03:41;5.32;;;3.00;;
48014;SDS011;33780;51.034;7.120;2023-04-23T07:06:08;5.75;;;3.03;;
48014;SDS011;33780;51.034;7.120;2023-04-23T07:08:34;7.82;;;3.25;;
48014;SDS011;33780;51.034;7.120;2023-04-23T07:11:00;5.38;;;3.08;;
48014;SDS011;33780;51.034;7.120;2023-04-23T07:13:26;5.10;;;2.80;;
48014;SDS011;33780;51.034;7.120;2023-04-23T07:15:52;5.30;;;3.20;;
48014;SDS011;33780;51.034;7.120;2023-04-23T07:18:17;5.60;;;2.85;;
48014;SDS011;33780;51.034;7.120;2023-04-23T07:20:42;5.43;;;3.00;;
48014;SDS011;33780;51.034;7.120;2023-04-23T07:23:07;5.95;;;2.90;;
48014;SDS011;33780;51.034;7.120;2023-04-23T07:25:33;5.13;;;2.90;;
48014;SDS011;33780;51.034;7.120;2023-04-23T07:27:58;4.95;;;2.75;;
48014;SDS011;33780;51.034;7.120;2023-04-23T07:30:24;5.10;;;3.00;;
48014;SDS011;33780;51.034;7.120;2023-04-23T07:32:50;6.53;;;3.20;;
48014;SDS011;33780;51.034;7.120;2023-04-23T07:35:16;4.53;;;2.72;;
48014;SDS011;33780;51.034;7.120;2023-04-23T07:37:41;5.70;;;2.90;;
48014;SDS011;33780;51.034;7.120;2023-04-23T07:40:06;5.60;;;3.15;;
48014;SDS011;33780;51.034;7.120;2023-04-23T07:42:33;4.53;;;2.75;;
48014;SDS011;33780;51.034;7.120;2023-04-23T07:44:58;5.05;;;2.65;;
48014;SDS011;33780;51.034;7.120;2023-04-23T07:47:24;3.60;;;2.35;;
48014;SDS011;33780;51.034;7.120;2023-04-23T07:49:52;3.80;;;2.40;;
48014;SDS011;33780;51.034;7.120;2023-04-23T07:52:17;4.55;;;2.65;;
48014;SDS011;33780;51.034;7.120;2023-04-23T07:54:43;3.92;;;2.35;;
48014;SDS011;33780;51.034;7.120;2023-04-23T07:57:08;5.13;;;2.50;;
48014;SDS011;33780;51.034;7.120;2023-04-23T07:59:35;3.92;;;2.50;;
48014;SDS011;33780;51.034;7.120;2023-04-23T08:02:02;4.70;;;2.17;;
48014;SDS011;33780;51.034;7.120;2023-04-23T08:04:28;4.35;;;2.53;;
48014;SDS011;33780;51.034;7.120;2023-04-23T08:06:53;4.43;;;2.05;;
48014;SDS011;33780;51.034;7.120;2023-04-23T08:09:18;4.00;;;1.98;;
48014;SDS011;33780;51.034;7.120;2023-04-23T08:11:44;3.72;;;2.10;;
48014;SDS011;33780;51.034;7.120;2023-04-23T08:14:09;4.07;;;2.15;;
48014;SDS011;33780;51.034;7.120;2023-04-23T08:16:35;4.50;;;2.05;;
48014;SDS011;33780;51.034;7.120;2023-04-23T08:19:06;3.70;;;2.08;;
48014;SDS011;33780;51.034;7.120;2023-04-23T08:21:36;3.15;;;1.83;;
48014;SDS011;33780;51.034;7.120;2023-04-23T08:24:01;4.22;;;1.90;;
48014;SDS011;33780;51.034;7.120;2023-04-23T08:26:27;3.33;;;1.77;;
48014;SDS011;33780;51.034;7.120;2023-04-23T08:28:52;3.45;;;1.80;;
48014;SDS011;33780;51.034;7.120;2023-04-23T08:31:18;3.15;;;1.80;;
48014;SDS011;33780;51.034;7.120;2023-04-23T08:33:43;3.65;;;2.03;;
48014;SDS011;33780;51.034;7.120;2023-04-23T08:36:08;3.80;;;1.73;;
48014;SDS011;33780;51.034;7.120;2023-04-23T08:38:34;2.83;;;1.55;;
48014;SDS011;33780;51.034;7.120;2023-04-23T08:40:59;3.00;;;1.40;;
48014;SDS011;33780;51.034;7.120;2023-04-23T08:43:37;3.85;;;1.80;;
48014;SDS011;33780;51.034;7.120;2023-04-23T08:46:10;3.20;;;1.58;;
48014;SDS011;33780;51.034;7.120;2023-04-23T08:48:37;3.78;;;1.67;;
48014;SDS011;33780;51.034;7.120;2023-04-23T08:51:04;3.00;;;1.70;;
48014;SDS011;33780;51.034;7.120;2023-04-23T08:53:33;4.28;;;1.90;;
48014;SDS011;33780;51.034;7.120;2023-04-23T08:55:59;5.47;;;2.03;;
48014;SDS011;33780;51.034;7.120;2023-04-23T08:58:26;2.83;;;1.58;;
48014;SDS011;33780;51.034;7.120;2023-04-23T09:00:53;4.55;;;1.60;;
48014;SDS011;33780;51.034;7.120;2023-04-23T09:03:21;3.13;;;1.60;;
48014;SDS011;33780;51.034;7.120;2023-04-23T09:05:48;2.17;;;1.20;;
48014;SDS011;33780;51.034;7.120;2023-04-23T09:08:14;2.47;;;1.38;;
48014;SDS011;33780;51.034;7.120;2023-04-23T09:10:40;2.47;;;1.40;;
48014;SDS011;33780;51.034;7.120;2023-04-23T09:13:07;2.95;;;1.30;;
48014;SDS011;33780;51.034;7.120;2023-04-23T09:15:32;1.92;;;1.30;;
48014;SDS011;33780;51.034;7.120;2023-04-23T09:18:02;2.17;;;1.10;;
48014;SDS011;33780;51.034;7.120;2023-04-23T09:20:28;2.97;;;1.55;;
48014;SDS011;33780;51.034;7.120;2023-04-23T09:22:53;2.20;;;1.20;;
48014;SDS011;33780;51.034;7.120;2023-04-23T09:25:20;2.45;;;1.27;;
48014;SDS011;33780;51.034;7.120;2023-04-23T09:27:50;1.95;;;1.13;;
48014;SDS011;33780;51.034;7.120;2023-04-23T09:30:16;2.40;;;1.50;;
48014;SDS011;33780;51.034;7.120;2023-04-23T09:32:43;3.55;;;1.27;;
48014;SDS011;33780;51.034;7.120;2023-04-23T09:35:14;2.10;;;1.20;;
48014;SDS011;33780;51.034;7.120;2023-04-23T09:37:47;4.93;;;1.40;;
48014;SDS011;33780;51.034;7.120;2023-04-23T09:40:18;3.05;;;1.48;;
48014;SDS011;33780;51.034;7.120;2023-04-23T09:42:48;3.38;;;1.42;;
48014;SDS011;33780;51.034;7.120;2023-04-23T09:45:14;2.40;;;1.23;;
48014;SDS011;33780;51.034;7.120;2023-04-23T09:47:41;3.40;;;1.15;;
48014;SDS011;33780;51.034;7.120;2023-04-23T09:52:38;2.50;;;1.25;;
48014;SDS011;33780;51.034;7.120;2023-04-23T09:55:04;3.20;;;1.20;;
48014;SDS011;33780;51.034;7.120;2023-04-23T09:57:34;3.72;;;1.42;;
48014;SDS011;33780;51.034;7.120;2023-04-23T10:00:11;1.95;;;1.10;;
48014;SDS011;33780;51.034;7.120;2023-04-23T10:02:44;2.35;;;1.17;;
48014;SDS011;33780;51.034;7.120;2023-04-23T10:05:15;2.05;;;1.27;;
48014;SDS011;33780;51.034;7.120;2023-04-23T10:07:42;2.75;;;1.25;;
48014;SDS011;33780;51.034;7.120;2023-04-23T10:10:09;2.25;;;1.15;;
48014;SDS011;33780;51.034;7.120;2023-04-23T10:12:35;2.25;;;1.20;;
48014;SDS011;33780;51.034;7.120;2023-04-23T10:15:01;1.50;;;0.90;;
48014;SDS011;33780;51.034;7.120;2023-04-23T10:17:28;4.28;;;1.20;;
48014;SDS011;33780;51.034;7.120;2023-04-23T10:19:54;2.22;;;0.90;;
48014;SDS011;33780;51.034;7.120;2023-04-23T10:22:21;2.95;;;1.13;;
48014;SDS011;33780;51.034;7.120;2023-04-23T10:24:51;1.60;;;0.80;;
48014;SDS011;33780;51.034;7.120;2023-04-23T10:27:23;1.38;;;0.77;;
48014;SDS011;33780;51.034;7.120;2023-04-23T10:29:51;2.08;;;0.75;;
48014;SDS011;33780;51.034;7.120;2023-04-23T10:32:17;2.33;;;0.98;;
48014;SDS011;33780;51.034;7.120;2023-04-23T10:34:44;4.45;;;0.90;;
48014;SDS011;33780;51.034;7.120;2023-04-23T10:37:10;1.75;;;0.93;;
48014;SDS011;33780;51.034;7.120;2023-04-23T10:39:37;1.52;;;0.98;;
48014;SDS011;33780;51.034;7.120;2023-04-23T10:42:02;3.20;;;0.82;;
48014;SDS011;33780;51.034;7.120;2023-04-23T10:44:32;1.80;;;0.80;;
48014;SDS011;33780;51.034;7.120;2023-04-23T10:47:01;1.17;;;0.65;;
48014;SDS011;33780;51.034;7.120;2023-04-23T10:49:33;1.98;;;0.60;;
48014;SDS011;33780;51.034;7.120;2023-04-23T10:52:02;1.02;;;0.45;;
48014;SDS011;33780;51.034;7.120;2023-04-23T10:54:32;1.50;;;0.60;;
48014;SDS011;33780;51.034;7.120;2023-04-23T10:56:59;1.90;;;0.70;;
48014;SDS011;33780;51.034;7.120;2023-04-23T10:59:27;1.67;;;0.60;;
48014;SDS011;33780;51.034;7.120;2023-04-23T11:01:55;1.98;;;0.90;;
48014;SDS011;33780;51.034;7.120;2023-04-23T11:04:25;2.50;;;0.73;;
48014;SDS011;33780;51.034;7.120;2023-04-23T11:07:06;2.03;;;0.70;;
48014;SDS011;33780;51.034;7.120;2023-04-23T11:12:11;1.77;;;0.70;;
48014;SDS011;33780;51.034;7.120;2023-04-23T11:14:49;1.10;;;0.60;;
48014;SDS011;33780;51.034;7.120;2023-04-23T11:17:16;1.40;;;0.50;;
48014;SDS011;33780;51.034;7.120;2023-04-23T11:22:44;1.70;;;0.70;;
48014;SDS011;33780;51.034;7.120;2023-04-23T11:25:15;1.20;;;0.50;;
48014;SDS011;33780;51.034;7.120;2023-04-23T11:27:45;2.58;;;0.55;;
48014;SDS011;33780;51.034;7.120;2023-04-23T11:30:15;2.25;;;0.70;;
48014;SDS011;33780;51.034;7.120;2023-04-23T11:32:41;2.45;;;0.60;;
48014;SDS011;33780;51.034;7.120;2023-04-23T11:35:09;1.20;;;0.50;;
48014;SDS011;33780;51.034;7.120;2023-04-23T11:37:37;1.10;;;0.40;;
48014;SDS011;33780;51.034;7.120;2023-04-23T11:40:05;1.75;;;0.70;;
48014;SDS011;33780;51.034;7.120;2023-04-23T11:42:50;1.42;;;0.70;;
48014;SDS011;33780;51.034;7.120;2023-04-23T11:45:21;1.27;;;0.50;;
48014;SDS011;33780;51.034;7.120;2023-04-23T11:47:49;2.38;;;0.60;;
48014;SDS011;33780;51.034;7.120;2023-04-23T11:50:20;1.58;;;0.60;;
48014;SDS011;33780;51.034;7.120;2023-04-23T11:52:47;1.85;;;0.70;;
48014;SDS011;33780;51.034;7.120;2023-04-23T11:55:12;1.98;;;0.60;;
48014;SDS011;33780;51.034;7.120;2023-04-23T11:57:42;1.42;;;0.60;;
48014;SDS011;33780;51.034;7.120;2023-04-23T12:00:09;1.38;;;0.60;;
48014;SDS011;33780;51.034;7.120;2023-04-23T12:02:52;1.20;;;0.60;;
48014;SDS011;33780;51.034;7.120;2023-04-23T12:05:27;1.35;;;0.60;;
48014;SDS011;33780;51.034;7.120;2023-04-23T12:10:42;1.60;;;0.68;;
48014;SDS011;33780;51.034;7.120;2023-04-23T12:13:13;1.30;;;0.70;;
48014;SDS011;33780;51.034;7.120;2023-04-23T12:15:53;1.63;;;0.60;;
48014;SDS011;33780;51.034;7.120;2023-04-23T12:18:26;1.83;;;0.50;;
48014;SDS011;33780;51.034;7.120;2023-04-23T12:20:55;1.70;;;0.50;;
48014;SDS011;33780;51.034;7.120;2023-04-23T12:23:28;0.90;;;0.50;;
48014;SDS011;33780;51.034;7.120;2023-04-23T12:25:56;2.17;;;0.60;;
48014;SDS011;33780;51.034;7.120;2023-04-23T12:28:22;0.85;;;0.50;;
48014;SDS011;33780;51.034;7.120;2023-04-23T12:30:48;1.02;;;0.50;;
48014;SDS011;33780;51.034;7.120;2023-04-23T12:33:14;1.60;;;0.40;;
48014;SDS011;33780;51.034;7.120;2023-04-23T12:38:25;1.13;;;0.50;;
48014;SDS011;33780;51.034;7.120;2023-04-23T12:40:55;2.72;;;0.50;;
48014;SDS011;33780;51.034;7.120;2023-04-23T12:43:23;1.42;;;0.60;;
48014;SDS011;33780;51.034;7.120;2023-04-23T12:45:50;1.10;;;0.50;;
48014;SDS011;33780;51.034;7.120;2023-04-23T12:48:16;2.85;;;0.50;;
48014;SDS011;33780;51.034;7.120;2023-04-23T12:50:43;1.88;;;0.50;;
48014;SDS011;33780;51.034;7.120;2023-04-23T12:53:10;1.40;;;0.50;;
48014;SDS011;33780;51.034;7.120;2023-04-23T12:55:35;3.95;;;0.60;;
48014;SDS011;33780;51.034;7.120;2023-04-23T12:58:02;0.80;;;0.40;;
48014;SDS011;33780;51.034;7.120;2023-04-23T13:00:28;1.30;;;0.40;;
48014;SDS011;33780;51.034;7.120;2023-04-23T13:02:53;1.77;;;0.40;;
48014;SDS011;33780;51.034;7.120;2023-04-23T13:05:19;1.08;;;0.40;;
48014;SDS011;33780;51.034;7.120;2023-04-23T13:07:45;2.45;;;0.63;;
48014;SDS011;33780;51.034;7.120;2023-04-23T13:10:10;1.45;;;0.47;;
48014;SDS011;33780;51.034;7.120;2023-04-23T13:12:35;0.98;;;0.47;;
48014;SDS011;33780;51.034;7.120;2023-04-23T13:15:00;1.38;;;0.50;;
48014;SDS011;33780;51.034;7.120;2023-04-23T13:17:26;1.20;;;0.50;;
48014;SDS011;33780;51.034;7.120;2023-04-23T13:19:52;0.90;;;0.40;;
48014;SDS011;33780;51.034;7.120;2023-04-23T13:22:18;1.20;;;0.47;;
48014;SDS011;33780;51.034;7.120;2023-04-23T13:24:43;1.27;;;0.55;;
48014;SDS011;33780;51.034;7.120;2023-04-23T13:27:09;1.73;;;0.57;;
48014;SDS011;33780;51.034;7.120;2023-04-23T13:29:35;1.35;;;0.55;;
48014;SDS011;33780;51.034;7.120;2023-04-23T13:32:00;0.93;;;0.40;;
48014;SDS011;33780;51.034;7.120;2023-04-23T13:34:26;2.78;;;0.68;;
48014;SDS011;33780;51.034;7.120;2023-04-23T13:36:51;2.45;;;0.50;;
48014;SDS011;33780;51.034;7.120;2023-04-23T13:39:16;1.95;;;0.60;;
48014;SDS011;33780;51.034;7.120;2023-04-23T13:41:42;4.47;;;1.45;;
48014;SDS011;33780;51.034;7.120;2023-04-23T13:44:08;1.67;;;0.50;;
48014;SDS011;33780;51.034;7.120;2023-04-23T13:46:33;1.85;;;0.50;;
48014;SDS011;33780;51.034;7.120;2023-04-23T13:48:58;2.50;;;0.50;;
48014;SDS011;33780;51.034;7.120;2023-04-23T13:51:25;1.80;;;0.57;;
48014;SDS011;33780;51.034;7.120;2023-04-23T13:53:50;2.70;;;0.60;;
48014;SDS011;33780;51.034;7.120;2023-04-23T13:56:15;1.52;;;0.60;;
48014;SDS011;33780;51.034;7.120;2023-04-23T13:58:41;2.42;;;0.50;;
48014;SDS011;33780;51.034;7.120;2023-04-23T14:01:09;2.75;;;0.50;;
48014;SDS011;33780;51.034;7.120;2023-04-23T14:03:35;2.05;;;0.70;;
48014;SDS011;33780;51.034;7.120;2023-04-23T14:06:01;1.00;;;0.40;;
48014;SDS011;33780;51.034;7.120;2023-04-23T14:08:26;1.98;;;0.40;;
48014;SDS011;33780;51.034;7.120;2023-04-23T14:10:52;2.28;;;0.50;;
48014;SDS011;33780;51.034;7.120;2023-04-23T14:13:17;1.33;;;0.55;;
48014;SDS011;33780;51.034;7.120;2023-04-23T14:15:42;2.20;;;0.60;;
48014;SDS011;33780;51.034;7.120;2023-04-23T14:18:08;1.80;;;0.43;;
48014;SDS011;33780;51.034;7.120;2023-04-23T14:23:03;2.22;;;0.60;;
48014;SDS011;33780;51.034;7.120;2023-04-23T14:26:20;2.55;;;0.60;;
48014;SDS011;33780;51.034;7.120;2023-04-23T14:28:46;1.40;;;0.50;;
48014;SDS011;33780;51.034;7.120;2023-04-23T14:31:15;2.55;;;0.60;;
48014;SDS011;33780;51.034;7.120;2023-04-23T14:33:40;1.45;;;0.50;;
48014;SDS011;33780;51.034;7.120;2023-04-23T14:36:06;1.60;;;0.60;;
48014;SDS011;33780;51.034;7.120;2023-04-23T14:38:31;1.77;;;0.60;;
48014;SDS011;33780;51.034;7.120;2023-04-23T14:40:56;1.27;;;0.63;;
48014;SDS011;33780;51.034;7.120;2023-04-23T14:43:22;1.23;;;0.77;;
48014;SDS011;33780;51.034;7.120;2023-04-23T14:45:47;1.70;;;0.65;;
48014;SDS011;33780;51.034;7.120;2023-04-23T14:48:12;0.98;;;0.50;;
48014;SDS011;33780;51.034;7.120;2023-04-23T14:50:38;2.20;;;0.60;;
48014;SDS011;33780;51.034;7.120;2023-04-23T14:53:03;1.63;;;0.68;;
48014;SDS011;33780;51.034;7.120;2023-04-23T14:55:31;2.13;;;0.88;;
48014;SDS011;33780;51.034;7.120;2023-04-23T14:57:56;1.52;;;0.68;;